Time;durP1;ratioP1;P1;durP2;ratioP2;P2;SDS_P1;SDS_P2;PMS_P1;PMS_P2;Temp;Humidity;BMP_temperature;BMP_pressure;BME280_temperature;BME280_humidity;BME280_pressure;Samples;Min_cycle;Max_cycle;Signal;HPM_P1;HPM_P2
2023/03/15 00:00:54;;;;;;;14.77;6.30;;;5.30;97.30;;;;;;5072409;28;20181;-73
2023/03/15 00:03:23;;;;;;;12.20;6.43;;;5.40;96.00;;;;;;5073212;28;20165;-72
2023/03/15 00:05:51;;;;;;;11.07;7.37;;;5.50;94.70;;;;;;5072825;28;20241;-71
2023/03/15 00:08:20;;;;;;;9.07;7.37;;;5.60;93.00;;;;;;5072828;28;20650;-72
2023/03/15 00:10:46;;;;;;;12.13;7.03;;;5.60;92.40;;;;;;5054857;28;20179;-72
2023/03/15 00:13:14;;;;;;;7.17;5.63;;;5.50;87.60;;;;;;5072888;28;20689;-71
2023/03/15 00:15:50;;;;;;;9.13;5.93;;;5.30;85.30;;;;;;5072222;28;20216;-71
2023/03/15 00:18:17;;;;;;;7.57;5.23;;;5.20;92.70;;;;;;5072745;28;20179;-72
2023/03/15 00:20:43;;;;;;;10.30;5.57;;;5.10;96.80;;;;;;5072819;28;20585;-72
2023/03/15 00:23:09;;;;;;;10.60;5.30;;;5.10;98.30;;;;;;5073002;28;20290;-71
2023/03/15 00:25:38;;;;;;;8.13;5.27;;;5.10;99.40;;;;;;5072660;28;20180;-72
2023/03/15 00:28:05;;;;;;;8.63;5.37;;;5.10;99.90;;;;;;5072835;28;20647;-72
2023/03/15 00:30:33;;;;;;;9.97;5.07;;;5.20;99.90;;;;;;5072452;28;20169;-72
2023/03/15 00:32:58;;;;;;;13.37;4.60;;;5.20;99.90;;;;;;5075432;28;20168;-72
2023/03/15 00:35:24;;;;;;;8.27;4.80;;;5.20;99.90;;;;;;5058739;28;20639;-72
2023/03/15 00:37:54;;;;;;;12.77;4.43;;;5.30;99.90;;;;;;5076614;28;20179;-72
2023/03/15 00:40:20;;;;;;;9.40;4.23;;;5.30;98.30;;;;;;5076311;28;20176;-72
2023/03/15 00:42:48;;;;;;;11.03;4.13;;;5.40;99.50;;;;;;5076640;28;20219;-72
2023/03/15 00:45:15;;;;;;;8.10;3.73;;;5.30;97.30;;;;;;5076207;28;20169;-72
2023/03/15 00:47:41;;;;;;;10.80;4.20;;;5.30;98.30;;;;;;5076754;28;20256;-72
2023/03/15 00:50:07;;;;;;;11.63;4.17;;;5.30;99.90;;;;;;5076411;28;20595;-72
2023/03/15 00:52:35;;;;;;;6.43;4.10;;;5.30;99.00;;;;;;5076397;28;20165;-71
2023/03/15 00:55:00;;;;;;;6.17;3.97;;;5.30;98.10;;;;;;5076077;28;20184;-71
2023/03/15 00:57:26;;;;;;;8.50;3.63;;;5.30;98.30;;;;;;5076495;28;20161;-71
2023/03/15 00:59:52;;;;;;;9.20;3.27;;;5.30;99.90;;;;;;5075976;28;20183;-72
2023/03/15 01:02:20;;;;;;;6.77;3.87;;;5.30;98.20;;;;;;5076071;28;20663;-71
2023/03/15 01:04:47;;;;;;;5.07;3.23;;;5.20;99.90;;;;;;5076154;28;20631;-71
2023/03/15 01:07:13;;;;;;;6.37;2.70;;;5.30;99.90;;;;;;5075824;28;20662;-72
2023/03/15 01:09:38;;;;;;;4.73;2.40;;;5.30;99.90;;;;;;5076089;28;20173;-71
2023/03/15 01:12:04;;;;;;;2.23;1.93;;;5.40;99.90;;;;;;5075957;28;20697;-70
2023/03/15 01:14:30;;;;;;;4.30;1.80;;;5.30;99.90;;;;;;5075305;28;20251;-71
2023/03/15 01:16:55;;;;;;;1.60;1.00;;;5.10;99.90;;;;;;5075843;28;20366;-72
2023/03/15 01:19:21;;;;;;;3.33;1.63;;;5.00;99.90;;;;;;5075788;28;20165;-71
2023/03/15 01:21:47;;;;;;;1.50;1.00;;;4.80;99.90;;;;;;5057707;28;20702;-71
2023/03/15 01:24:13;;;;;;;4.77;1.27;;;4.70;99.90;;;;;;5075741;28;20172;-70
2023/03/15 01:26:39;;;;;;;3.03;1.33;;;4.70;99.90;;;;;;5075702;28;20624;-71
2023/03/15 01:29:05;;;;;;;1.40;1.30;;;4.70;99.90;;;;;;5057635;28;20184;-71
2023/03/15 01:31:31;;;;;;;2.83;1.60;;;4.70;99.90;;;;;;5075636;28;20176;-71
2023/03/15 01:33:58;;;;;;;3.47;1.70;;;4.60;99.90;;;;;;5075819;28;20165;-71
2023/03/15 01:36:24;;;;;;;2.00;1.63;;;4.60;99.90;;;;;;5075780;28;20203;-72
2023/03/15 01:38:49;;;;;;;2.13;1.70;;;4.50;99.90;;;;;;5075523;28;20204;-71
2023/03/15 01:41:17;;;;;;;3.20;2.17;;;4.40;99.90;;;;;;5075493;28;20608;-71
2023/03/15 01:43:46;;;;;;;3.30;2.40;;;4.40;99.90;;;;;;5073931;28;20251;-73
2023/03/15 01:46:24;;;;;;;5.40;2.43;;;4.50;99.90;;;;;;5075430;28;20170;-71
2023/03/15 01:48:59;;;;;;;3.20;2.50;;;4.60;99.90;;;;;;5075268;28;20179;-71
2023/03/15 01:51:38;;;;;;;5.60;2.40;;;4.60;99.90;;;;;;5075544;28;20172;-71
2023/03/15 01:54:21;;;;;;;3.63;2.27;;;4.60;99.90;;;;;;5075367;28;20164;-71
2023/03/15 01:57:04;;;;;;;5.30;2.37;;;4.70;99.90;;;;;;5074875;28;20234;-71
2023/03/15 01:59:35;;;;;;;3.50;2.27;;;4.70;99.90;;;;;;5074998;28;20496;-71
2023/03/15 02:02:01;;;;;;;2.43;2.23;;;4.80;99.90;;;;;;5075108;28;20629;-71
2023/03/15 02:04:37;;;;;;;4.63;2.30;;;4.80;99.90;;;;;;5075001;28;20643;-72
2023/03/15 02:07:04;;;;;;;5.00;2.17;;;4.80;99.90;;;;;;5074941;28;20298;-72
2023/03/15 02:10:02;;;;;;;4.63;2.40;;;4.90;99.90;;;;;;5074914;28;20230;-72
2023/03/15 02:12:30;;;;;;;5.13;2.17;;;4.90;99.90;;;;;;5074632;28;20197;-71
2023/03/15 02:14:59;;;;;;;4.17;2.10;;;4.90;99.90;;;;;;5074545;28;20223;-72
2023/03/15 02:17:33;;;;;;;4.73;2.73;;;5.00;99.90;;;;;;5074786;28;20206;-72
2023/03/15 02:20:16;;;;;;;3.17;2.30;;;5.00;99.90;;;;;;5074803;28;20644;-72
2023/03/15 02:22:49;;;;;;;2.93;2.40;;;5.00;99.90;;;;;;5075004;28;20258;-72
2023/03/15 02:25:35;;;;;;;5.50;2.60;;;4.90;99.90;;;;;;5074513;28;20230;-72
2023/03/15 02:28:04;;;;;;;10.63;2.93;;;4.90;99.90;;;;;;5074475;28;20279;-71
2023/03/15 02:30:30;;;;;;;4.30;2.37;;;5.00;99.90;;;;;;5074395;28;20176;-72
2023/03/15 02:32:57;;;;;;;4.57;2.50;;;5.00;99.90;;;;;;5074346;28;20172;-72
2023/03/15 02:35:31;;;;;;;4.03;2.77;;;5.10;99.90;;;;;;5074276;28;20208;-72
2023/03/15 02:38:01;;;;;;;5.37;2.70;;;5.10;99.90;;;;;;5074355;28;20305;-72
2023/03/15 02:40:29;;;;;;;3.57;2.60;;;5.10;99.90;;;;;;5073949;28;20255;-72
2023/03/15 02:43:06;;;;;;;4.17;2.67;;;5.10;99.90;;;;;;5074057;28;20208;-71
2023/03/15 02:45:33;;;;;;;5.30;2.80;;;5.10;99.90;;;;;;5074016;28;20176;-72
2023/03/15 02:48:01;;;;;;;7.80;3.13;;;5.10;99.90;;;;;;5056125;28;20199;-72
2023/03/15 02:50:27;;;;;;;3.80;3.50;;;5.10;99.90;;;;;;5073995;28;20168;-72
2023/03/15 02:52:52;;;;;;;8.23;4.00;;;5.10;99.90;;;;;;5073973;28;20176;-72
2023/03/15 02:55:27;;;;;;;3.70;3.40;;;5.10;99.90;;;;;;5073270;28;20180;-71
2023/03/15 02:57:53;;;;;;;7.97;4.10;;;5.10;99.90;;;;;;5073645;28;20171;-72
2023/03/15 03:00:22;;;;;;;6.53;4.70;;;5.20;99.90;;;;;;5073981;28;20533;-72
2023/03/15 03:02:48;;;;;;;5.13;4.20;;;5.20;99.90;;;;;;5073492;28;20253;-71
2023/03/15 03:05:17;;;;;;;5.30;4.80;;;5.20;99.90;;;;;;5073981;28;20193;-72
2023/03/15 03:07:46;;;;;;;7.17;5.13;;;5.30;99.90;;;;;;5073510;28;20326;-72
2023/03/15 03:10:15;;;;;;;6.43;4.77;;;5.30;99.90;;;;;;5073404;28;20204;-71
2023/03/15 03:12:40;;;;;;;8.20;5.40;;;5.30;99.90;;;;;;5056035;28;20184;-72
2023/03/15 03:15:07;;;;;;;8.10;5.13;;;5.30;99.90;;;;;;5073457;28;20270;-72
2023/03/15 03:17:36;;;;;;;5.37;4.57;;;5.40;99.90;;;;;;5073550;28;20177;-71
2023/03/15 03:20:08;;;;;;;6.30;5.33;;;5.40;99.90;;;;;;5073732;28;20574;-71
2023/03/15 03:22:35;;;;;;;7.43;4.60;;;5.30;99.90;;;;;;5073780;28;20240;-72
2023/03/15 03:25:05;;;;;;;9.33;5.60;;;5.20;99.90;;;;;;5072988;28;20186;-71
2023/03/15 03:27:30;;;;;;;6.07;4.73;;;5.30;99.90;;;;;;5073494;28;20179;-72
2023/03/15 03:29:57;;;;;;;7.10;4.40;;;5.30;99.90;;;;;;5055579;28;20168;-71
2023/03/15 03:32:23;;;;;;;4.93;4.33;;;5.30;99.90;;;;;;5073481;28;20187;-72
2023/03/15 03:34:48;;;;;;;6.73;4.87;;;5.20;99.90;;;;;;5073459;28;20195;-72
2023/03/15 03:37:19;;;;;;;6.47;4.90;;;5.20;99.90;;;;;;5073415;28;20215;-70
2023/03/15 03:39:44;;;;;;;10.77;5.13;;;5.30;99.90;;;;;;5072773;28;20263;-70
2023/03/15 03:42:10;;;;;;;5.67;4.53;;;5.40;99.90;;;;;;5055152;28;20257;-71
2023/03/15 03:44:36;;;;;;;7.07;5.10;;;5.30;99.90;;;;;;5055509;28;20173;-70
2023/03/15 03:47:02;;;;;;;6.20;4.80;;;5.40;99.90;;;;;;5073326;28;20267;-71
2023/03/15 03:49:28;;;;;;;8.03;4.87;;;5.30;99.90;;;;;;5073102;28;20181;-71
2023/03/15 03:51:53;;;;;;;5.67;5.17;;;5.30;99.90;;;;;;5073056;28;20187;-71
2023/03/15 03:54:22;;;;;;;8.07;5.30;;;5.30;99.90;;;;;;5072629;28;20198;-71
2023/03/15 03:56:47;;;;;;;8.07;4.87;;;5.30;99.90;;;;;;5073233;28;20607;-71
2023/03/15 03:59:13;;;;;;;6.47;5.20;;;5.30;99.90;;;;;;5073045;28;20175;-71
2023/03/15 04:01:40;;;;;;;6.40;5.20;;;5.20;99.90;;;;;;5073016;28;20223;-71
2023/03/15 04:04:06;;;;;;;6.30;4.70;;;5.20;99.90;;;;;;5073013;28;20587;-71
2023/03/15 04:06:32;;;;;;;8.53;4.77;;;5.10;99.90;;;;;;5072313;28;20292;-71
2023/03/15 04:08:58;;;;;;;8.87;5.20;;;5.10;99.90;;;;;;5072603;28;20172;-71
2023/03/15 04:11:26;;;;;;;5.57;5.07;;;5.00;99.90;;;;;;5073021;28;20259;-71
2023/03/15 04:13:52;;;;;;;7.90;5.07;;;5.00;99.90;;;;;;5072825;28;20226;-72
2023/03/15 04:16:23;;;;;;;8.40;5.23;;;5.00;99.90;;;;;;5072899;28;20588;-71
2023/03/15 04:18:55;;;;;;;7.67;5.20;;;4.90;99.90;;;;;;5072896;28;20231;-70
2023/03/15 04:21:21;;;;;;;6.40;5.60;;;5.00;99.90;;;;;;5072685;28;20208;-72
2023/03/15 04:23:47;;;;;;;11.90;5.70;;;5.00;99.90;;;;;;5054639;28;20252;-71
2023/03/15 04:26:15;;;;;;;7.20;6.47;;;5.00;99.90;;;;;;5072485;28;20200;-70
2023/03/15 04:28:41;;;;;;;7.33;5.73;;;5.00;99.90;;;;;;5072887;28;20168;-70
2023/03/15 04:31:09;;;;;;;6.93;5.80;;;5.00;99.90;;;;;;5072685;28;20172;-71
2023/03/15 04:33:35;;;;;;;6.10;5.60;;;5.10;99.90;;;;;;5072341;28;20168;-71
2023/03/15 04:36:01;;;;;;;7.03;6.27;;;5.10;99.90;;;;;;5072316;28;20165;-71
2023/03/15 04:38:27;;;;;;;7.37;5.60;;;5.10;99.90;;;;;;5072272;28;20177;-70
2023/03/15 04:40:56;;;;;;;6.53;5.93;;;5.10;99.90;;;;;;5072369;28;20195;-71
2023/03/15 04:43:23;;;;;;;10.73;6.40;;;5.10;99.90;;;;;;5072480;28;20220;-70
2023/03/15 04:45:51;;;;;;;9.60;7.33;;;5.10;99.90;;;;;;5072114;28;20164;-71
2023/03/15 04:48:17;;;;;;;8.27;6.47;;;5.20;99.90;;;;;;5072124;28;20177;-71
2023/03/15 04:50:43;;;;;;;8.53;6.80;;;5.00;99.90;;;;;;5072200;28;20175;-70
2023/03/15 04:53:09;;;;;;;10.80;6.60;;;4.90;99.90;;;;;;5072197;28;20168;-71
2023/03/15 04:55:37;;;;;;;8.47;7.03;;;4.90;99.90;;;;;;5071925;28;20670;-70
2023/03/15 04:58:02;;;;;;;15.67;7.90;;;4.80;99.90;;;;;;5071904;28;20176;-71
2023/03/15 05:00:28;;;;;;;13.03;7.50;;;4.70;99.90;;;;;;5072415;28;20695;-71
2023/03/15 05:02:53;;;;;;;11.77;7.10;;;4.70;99.90;;;;;;5072117;28;20219;-71
2023/03/15 05:05:22;;;;;;;10.50;7.47;;;4.60;99.90;;;;;;5071760;28;20188;-71
2023/03/15 05:07:47;;;;;;;11.10;8.00;;;4.50;99.90;;;;;;5072169;28;20180;-72
2023/03/15 05:10:14;;;;;;;11.30;7.47;;;4.50;99.90;;;;;;5071906;28;20161;-71
2023/03/15 05:12:40;;;;;;;14.23;8.03;;;4.50;99.90;;;;;;5071777;28;20210;-71
2023/03/15 05:15:09;;;;;;;11.60;8.33;;;4.50;99.90;;;;;;5071708;28;20616;-71
2023/03/15 05:17:35;;;;;;;12.87;8.13;;;4.50;99.90;;;;;;5072071;28;20179;-72
2023/03/15 05:20:00;;;;;;;15.63;8.50;;;4.50;99.90;;;;;;5075295;28;20172;-72
2023/03/15 05:22:26;;;;;;;13.93;8.63;;;4.50;99.90;;;;;;5075250;28;20197;-71
2023/03/15 05:24:52;;;;;;;10.03;8.50;;;4.50;99.90;;;;;;5075142;28;20172;-71
2023/03/15 05:27:19;;;;;;;14.20;8.93;;;4.50;99.90;;;;;;5075103;28;20596;-71
2023/03/15 05:29:45;;;;;;;14.57;9.30;;;4.50;99.90;;;;;;5075333;28;20177;-71
2023/03/15 05:32:10;;;;;;;15.10;9.93;;;4.40;99.90;;;;;;5074833;28;20263;-71
2023/03/15 05:34:36;;;;;;;13.70;9.80;;;4.40;99.90;;;;;;5074675;28;20176;-71
2023/03/15 05:37:02;;;;;;;17.40;9.40;;;4.40;99.90;;;;;;5075181;28;20259;-71
2023/03/15 05:39:27;;;;;;;16.33;9.50;;;4.40;99.90;;;;;;5075282;28;20179;-71
2023/03/15 05:41:56;;;;;;;11.47;9.50;;;4.40;99.90;;;;;;5074835;28;20210;-72
2023/03/15 05:44:23;;;;;;;15.23;9.33;;;4.50;99.90;;;;;;5074777;28;20253;-71
2023/03/15 05:46:49;;;;;;;13.83;9.67;;;4.60;99.90;;;;;;5074608;28;20181;-71
2023/03/15 05:49:15;;;;;;;14.77;10.40;;;4.60;99.90;;;;;;5074585;28;20260;-72
2023/03/15 05:51:40;;;;;;;15.07;9.63;;;4.70;99.90;;;;;;5074582;28;20636;-71
2023/03/15 05:54:06;;;;;;;13.70;8.67;;;4.70;99.90;;;;;;5074688;28;20642;-72
2023/03/15 05:56:34;;;;;;;17.70;11.10;;;4.60;99.90;;;;;;5074714;28;20184;-72
2023/03/15 05:59:01;;;;;;;13.80;9.03;;;4.60;99.90;;;;;;5073869;28;20215;-72
2023/03/15 06:01:28;;;;;;;13.43;9.37;;;4.50;99.90;;;;;;5074300;28;20221;-72
2023/03/15 06:03:56;;;;;;;16.27;9.13;;;4.50;99.90;;;;;;5074125;28;20226;-72
2023/03/15 06:06:22;;;;;;;11.70;8.70;;;4.40;99.90;;;;;;5074386;28;20215;-72
2023/03/15 06:08:47;;;;;;;12.83;8.87;;;4.50;99.90;;;;;;5074090;28;20592;-71
2023/03/15 06:11:16;;;;;;;14.53;9.33;;;4.50;99.90;;;;;;5056609;28;20218;-73
2023/03/15 06:13:41;;;;;;;14.90;8.97;;;4.60;99.90;;;;;;5055995;28;20181;-71
2023/03/15 06:16:07;;;;;;;14.93;8.87;;;4.70;99.90;;;;;;5073926;28;20293;-71
2023/03/15 06:18:33;;;;;;;15.53;8.80;;;4.70;99.90;;;;;;5073762;28;20168;-72
2023/03/15 06:20:58;;;;;;;16.20;8.13;;;4.70;99.90;;;;;;5073953;28;20187;-72
2023/03/15 06:23:24;;;;;;;15.93;8.73;;;4.60;99.90;;;;;;5055922;28;20303;-71
2023/03/15 06:25:52;;;;;;;12.20;9.17;;;4.70;99.90;;;;;;5073576;28;20183;-71
2023/03/15 06:28:18;;;;;;;12.20;8.23;;;4.80;99.90;;;;;;5073507;28;20252;-72
2023/03/15 06:30:44;;;;;;;13.80;8.47;;;4.80;99.90;;;;;;5072749;28;20359;-72
2023/03/15 06:33:10;;;;;;;14.93;8.90;;;4.90;99.90;;;;;;5073598;28;20183;-72
2023/03/15 06:35:36;;;;;;;13.43;9.20;;;4.90;99.90;;;;;;5073189;28;20253;-71
2023/03/15 06:38:01;;;;;;;11.67;8.70;;;4.90;99.90;;;;;;5073468;28;20206;-72
2023/03/15 06:40:27;;;;;;;13.70;8.60;;;5.00;99.90;;;;;;5073226;28;20529;-71
2023/03/15 06:42:54;;;;;;;10.77;8.33;;;4.90;99.90;;;;;;5073370;28;20255;-71
2023/03/15 06:45:20;;;;;;;10.50;8.07;;;5.00;99.90;;;;;;5073309;28;20256;-71
2023/03/15 06:47:48;;;;;;;15.50;8.33;;;5.20;99.90;;;;;;5054239;28;20268;-72
2023/03/15 06:50:14;;;;;;;11.97;9.13;;;5.30;99.90;;;;;;5073358;28;20181;-70
2023/03/15 06:52:39;;;;;;;13.80;8.33;;;5.30;99.90;;;;;;5073132;28;20176;-71
2023/03/15 06:55:05;;;;;;;17.83;8.77;;;5.40;99.90;;;;;;5072749;28;20177;-71
2023/03/15 06:57:32;;;;;;;12.43;8.00;;;5.50;99.90;;;;;;5072401;28;20169;-70
2023/03/15 07:00:00;;;;;;;11.97;8.30;;;5.70;99.90;;;;;;5072750;28;20219;-71
2023/03/15 07:02:25;;;;;;;11.87;8.73;;;6.00;99.90;;;;;;5072224;28;20872;-71
2023/03/15 07:04:54;;;;;;;12.23;8.47;;;6.40;99.90;;;;;;5072184;28;20173;-73
2023/03/15 07:07:20;;;;;;;9.77;8.53;;;6.90;99.90;;;;;;5072426;28;20213;-72
2023/03/15 07:09:45;;;;;;;13.07;7.30;;;7.90;99.90;;;;;;5072945;28;20229;-71
2023/03/15 07:12:11;;;;;;;11.13;6.60;;;9.10;99.90;;;;;;5072686;28;20628;-71
2023/03/15 07:14:36;;;;;;;7.60;5.87;;;9.90;48.30;;;;;;5072314;28;20224;-72
2023/03/15 07:17:05;;;;;;;9.37;5.90;;;10.50;2.00;;;;;;5071572;28;20693;-74
2023/03/15 07:19:31;;;;;;;7.00;6.30;;;10.70;1.00;;;;;;5054744;28;20172;-74
2023/03/15 07:21:56;;;;;;;9.00;5.23;;;11.70;1.00;;;;;;5072286;28;20554;-73
2023/03/15 07:24:22;;;;;;;6.77;5.70;;;12.90;1.00;;;;;;5072387;28;20203;-73
2023/03/15 07:26:47;;;;;;;8.30;5.60;;;13.70;1.00;;;;;;5071921;28;20260;-73
2023/03/15 07:29:13;;;;;;;7.97;5.50;;;14.50;99.90;;;;;;5071748;28;20172;-74
2023/03/15 07:31:38;;;;;;;9.77;4.80;;;15.50;1.00;;;;;;5072069;28;20381;-73
2023/03/15 07:34:04;;;;;;;9.77;5.30;;;16.20;1.00;;;;;;5072333;28;20487;-74
2023/03/15 07:36:31;;;;;;;9.40;5.35;;;17.20;1.00;;;;;;5072290;28;20187;-73
2023/03/15 07:39:00;;;;;;;6.22;4.82;;;17.70;1.00;;;;;;5054078;28;20234;-74
2023/03/15 07:41:28;;;;;;;8.30;4.57;;;18.60;99.90;;;;;;5071167;28;20184;-72
2023/03/15 07:43:54;;;;;;;6.53;4.82;;;18.80;99.90;;;;;;5053699;28;20607;-74
2023/03/15 07:46:20;;;;;;;5.05;4.57;;;19.30;99.90;;;;;;5070894;28;20169;-74
2023/03/15 07:48:45;;;;;;;4.75;4.35;;;19.80;64.90;;;;;;5071326;28;20172;-74
2023/03/15 07:51:11;;;;;;;6.32;4.45;;;19.80;1.00;;;;;;5070886;28;20286;-74
2023/03/15 07:53:39;;;;;;;5.88;4.60;;;19.60;1.00;;;;;;5069010;28;20181;-75
2023/03/15 07:56:05;;;;;;;5.32;4.63;;;19.30;1.00;;;;;;5071763;28;20199;-74
2023/03/15 07:58:31;;;;;;;5.65;4.80;;;19.60;1.00;;;;;;5071428;28;20588;-74
2023/03/15 08:00:57;;;;;;;4.90;4.30;;;19.70;5.60;;;;;;5071587;28;20269;-73
2023/03/15 08:03:25;;;;;;;4.47;4.07;;;19.40;1.00;;;;;;5071689;28;20208;-74
2023/03/15 08:05:51;;;;;;;5.13;4.20;;;20.10;1.00;;;;;;5071237;28;20227;-74
2023/03/15 08:08:17;;;;;;;3.88;3.60;;;20.70;1.00;;;;;;5070739;28;20196;-73
2023/03/15 08:10:43;;;;;;;4.57;3.47;;;20.60;1.00;;;;;;5068245;28;20928;-73
2023/03/15 08:13:10;;;;;;;6.18;3.88;;;20.30;1.00;;;;;;5071642;28;20173;-74
2023/03/15 08:15:35;;;;;;;4.82;3.38;;;20.10;1.00;;;;;;5071394;28;20235;-74
2023/03/15 08:18:01;;;;;;;5.40;3.85;;;19.40;1.00;;;;;;5071852;28;20235;-73
2023/03/15 08:20:32;;;;;;;4.40;3.40;;;18.20;25.10;;;;;;5072076;28;20670;-74
2023/03/15 08:22:58;;;;;;;4.95;3.90;;;17.60;1.00;;;;;;5072100;28;20299;-74
2023/03/15 08:25:27;;;;;;;6.63;3.80;;;18.00;1.00;;;;;;5053062;28;20192;-73
2023/03/15 08:27:53;;;;;;;4.13;3.63;;;17.70;1.00;;;;;;5071992;28;20165;-72
2023/03/15 08:30:25;;;;;;;4.22;3.83;;;16.40;99.90;;;;;;5072246;28;20230;-72
2023/03/15 08:32:51;;;;;;;5.85;3.83;;;15.60;99.90;;;;;;5053429;28;20204;-74
2023/03/15 08:35:21;;;;;;;5.07;4.45;;;15.20;1.00;;;;;;5070999;28;20207;-74
2023/03/15 08:37:47;;;;;;;4.23;3.70;;;15.30;1.00;;;;;;5071223;28;20165;-74
2023/03/15 08:40:22;;;;;;;4.82;3.53;;;15.70;1.00;;;;;;5053262;28;20173;-74
2023/03/15 08:42:48;;;;;;;4.47;3.90;;;16.30;1.00;;;;;;5053714;28;20216;-75
2023/03/15 08:45:14;;;;;;;5.38;3.67;;;17.40;71.80;;;;;;5071329;28;20530;-74
2023/03/15 08:47:41;;;;;;;3.90;3.40;;;18.40;24.80;;;;;;5071648;28;20171;-74
2023/03/15 08:50:10;;;;;;;5.07;3.67;;;19.00;1.00;;;;;;5071687;28;20592;-74
2023/03/15 08:52:36;;;;;;;3.88;3.50;;;20.00;1.00;;;;;;5071962;28;20180;-72
2023/03/15 08:55:03;;;;;;;4.95;4.07;;;20.30;1.00;;;;;;5075447;28;20164;-73
2023/03/15 08:57:31;;;;;;;5.93;3.80;;;18.70;1.00;;;;;;5074946;28;20176;-74
2023/03/15 09:00:00;;;;;;;5.85;4.40;;;17.50;1.00;;;;;;5073644;28;20172;-75
2023/03/15 09:02:25;;;;;;;7.03;4.32;;;16.60;1.00;;;;;;5086690;28;20204;-74
2023/03/15 09:04:51;;;;;;;6.70;4.00;;;15.70;1.00;;;;;;5095573;28;20196;-75
2023/03/15 09:07:17;;;;;;;4.97;4.00;;;14.80;99.90;;;;;;5076447;28;20660;-75
2023/03/15 09:09:46;;;;;;;5.77;4.73;;;14.40;1.00;;;;;;5095426;28;20200;-75
2023/03/15 09:12:15;;;;;;;6.00;3.80;;;13.80;1.00;;;;;;5095423;28;20643;-75
2023/03/15 09:14:41;;;;;;;5.90;4.40;;;12.90;1.00;;;;;;5094917;28;20219;-74
2023/03/15 09:17:07;;;;;;;7.67;4.70;;;11.90;1.00;;;;;;5095339;28;20183;-75
2023/03/15 09:19:33;;;;;;;7.03;4.73;;;11.20;1.00;;;;;;5095645;28;20176;-73
2023/03/15 09:21:58;;;;;;;9.70;5.07;;;11.20;1.00;;;;;;5095527;28;20607;-75
2023/03/15 09:24:24;;;;;;;5.73;4.60;;;11.10;1.00;;;;;;5095341;28;20211;-76
2023/03/15 09:26:50;;;;;;;5.57;4.70;;;10.70;1.00;;;;;;5094845;28;20175;-79
2023/03/15 09:29:15;;;;;;;4.53;4.10;;;10.20;1.00;;;;;;5095348;28;20175;-78
2023/03/15 09:31:41;;;;;;;3.67;3.23;;;10.20;1.00;;;;;;5094514;28;20168;-76
2023/03/15 09:34:06;;;;;;;10.10;5.27;;;10.20;1.00;;;;;;5095291;28;20200;-76
2023/03/15 09:36:32;;;;;;;7.77;4.07;;;10.00;1.00;;;;;;5095039;28;20626;-76
2023/03/15 09:38:59;;;;;;;8.73;4.40;;;10.10;1.00;;;;;;5094442;28;20182;-78
2023/03/15 09:41:51;;;;;;;6.67;4.97;;;10.10;1.00;;;;;;5094186;28;20179;-76
2023/03/15 09:44:22;;;;;;;5.00;4.40;;;10.10;1.00;;;;;;5094495;28;20183;-76
2023/03/15 09:47:09;;;;;;;6.57;4.30;;;10.00;1.00;;;;;;5095013;28;20172;-76
2023/03/15 09:49:59;;;;;;;5.03;3.70;;;10.10;1.00;;;;;;5094684;28;20226;-76
2023/03/15 09:52:53;;;;;;;8.67;5.67;;;9.90;1.00;;;;;;5094789;28;20175;-76
2023/03/15 09:55:27;;;;;;;5.43;4.90;;;9.90;1.00;;;;;;5076209;28;20172;-77
2023/03/15 09:58:00;;;;;;;7.60;5.30;;;10.00;1.00;;;;;;5094301;28;20182;-75
2023/03/15 10:00:37;;;;;;;5.70;4.80;;;10.10;1.00;;;;;;5094653;28;20249;-78
2023/03/15 10:03:08;;;;;;;8.97;6.43;;;10.20;1.00;;;;;;5094278;28;20207;-76
2023/03/15 10:05:40;;;;;;;4.90;3.63;;;10.60;1.00;;;;;;5093345;28;20187;-75
2023/03/15 10:08:23;;;;;;;4.63;3.90;;;12.10;1.00;;;;;;5094028;28;20319;-76
2023/03/15 10:11:09;;;;;;;3.67;3.37;;;12.70;99.90;;;;;;5094391;28;20174;-76
2023/03/15 10:13:44;;;;;;;4.30;3.90;;;12.30;99.90;;;;;;5088413;28;20183;-76
2023/03/15 10:16:43;;;;;;;5.20;4.13;;;11.30;21.10;;;;;;5072950;28;20222;-76
2023/03/15 10:19:37;;;;;;;5.77;4.17;;;10.60;99.90;;;;;;5073977;28;20263;-76
2023/03/15 10:22:12;;;;;;;5.10;3.77;;;11.00;1.00;;;;;;5055504;28;20624;-75
2023/03/15 10:25:10;;;;;;;4.13;3.00;;;12.40;99.90;;;;;;5073217;28;20168;-77
2023/03/15 10:27:41;;;;;;;3.63;3.20;;;13.40;99.90;;;;;;5054999;28;20199;-77
2023/03/15 10:30:22;;;;;;;5.50;3.47;;;13.80;1.00;;;;;;5073248;28;20176;-77
2023/03/15 10:33:20;;;;;;;3.70;3.40;;;13.80;1.00;;;;;;5073843;28;20172;-77
2023/03/15 10:35:48;;;;;;;4.13;2.77;;;12.40;99.90;;;;;;5073117;28;20168;-77
2023/03/15 10:38:19;;;;;;;4.57;3.10;;;12.80;4.00;;;;;;5073205;28;20169;-76
2023/03/15 10:40:53;;;;;;;3.33;3.03;;;13.10;63.10;;;;;;5073238;28;20604;-76
2023/03/15 10:43:23;;;;;;;4.63;3.60;;;12.60;1.00;;;;;;5055677;28;20208;-76
2023/03/15 10:46:01;;;;;;;9.20;3.70;;;12.20;99.90;;;;;;5055688;28;20192;-77
2023/03/15 10:48:30;;;;;;;8.33;3.83;;;12.00;99.90;;;;;;5073509;28;20191;-75
2023/03/15 10:50:56;;;;;;;5.37;3.17;;;11.50;1.00;;;;;;5073500;28;20175;-75
2023/03/15 10:53:24;;;;;;;8.93;5.27;;;12.00;1.00;;;;;;5054719;28;20259;-76
2023/03/15 10:56:12;;;;;;;4.03;2.90;;;12.40;1.00;;;;;;5073657;28;20236;-77
2023/03/15 10:58:46;;;;;;;4.10;2.87;;;13.50;1.00;;;;;;5080214;28;20173;-77
2023/03/15 11:01:33;;;;;;;3.57;2.60;;;14.30;1.00;;;;;;5077042;28;20631;-77
2023/03/15 11:04:20;;;;;;;5.73;3.20;;;14.70;1.00;;;;;;5073391;28;20233;-76
2023/03/15 11:06:49;;;;;;;3.63;2.87;;;14.60;1.00;;;;;;5048974;28;20206;-76
2023/03/15 11:09:26;;;;;;;7.43;3.50;;;14.50;1.00;;;;;;5055238;28;20646;-77
2023/03/15 11:11:57;;;;;;;5.38;3.40;;;15.20;1.00;;;;;;5075536;28;20236;-76
2023/03/15 11:14:23;;;;;;;9.93;4.38;;;15.90;1.00;;;;;;5076896;28;20558;-77
2023/03/15 11:16:52;;;;;;;6.65;3.20;;;16.50;1.00;;;;;;5078681;28;20211;-77
2023/03/15 11:19:21;;;;;;;5.53;3.53;;;17.10;1.00;;;;;;5074613;28;20165;-77
2023/03/15 11:21:49;;;;;;;6.68;3.10;;;17.80;1.00;;;;;;5079426;28;20228;-77
2023/03/15 11:24:33;;;;;;;6.05;3.92;;;18.30;1.00;;;;;;5075573;28;20210;-77
2023/03/15 11:27:09;;;;;;;7.50;3.63;;;18.60;99.90;;;;;;5073436;28;20822;-77
2023/03/15 11:29:37;;;;;;;4.07;2.80;;;19.40;99.90;;;;;;5073829;28;20547;-77
2023/03/15 11:32:12;;;;;;;4.55;2.95;;;19.30;99.90;;;;;;5073396;28;20259;-78
2023/03/15 11:34:57;;;;;;;7.75;4.80;;;19.50;99.90;;;;;;5073798;28;20709;-78
2023/03/15 11:37:48;;;;;;;6.05;3.00;;;19.40;99.90;;;;;;5072917;28;20191;-77
2023/03/15 11:40:21;;;;;;;6.05;3.00;;;19.20;99.90;;;;;;5053356;28;20185;-77
2023/03/15 11:43:07;;;;;;;4.65;3.00;;;18.40;99.90;;;;;;5054387;28;20233;-79
2023/03/15 11:45:59;;;;;;;4.63;2.80;;;17.80;99.90;;;;;;5072493;28;20273;-79
2023/03/15 11:48:30;;;;;;;6.03;2.65;;;18.10;99.90;;;;;;5072174;28;20666;-79
2023/03/15 11:50:58;;;;;;;4.18;2.60;;;17.00;99.90;;;;;;5072748;28;20623;-77
2023/03/15 11:53:30;;;;;;;3.20;2.67;;;16.30;99.90;;;;;;5072868;28;20173;-77
2023/03/15 11:55:57;;;;;;;3.72;2.70;;;15.90;99.90;;;;;;5073247;28;20168;-78
2023/03/15 11:58:34;;;;;;;2.38;2.10;;;16.20;1.00;;;;;;5073054;28;20167;-78
2023/03/15 12:01:10;;;;;;;3.33;2.10;;;15.20;1.00;;;;;;5072016;28;20276;-78
2023/03/15 12:03:48;;;;;;;6.38;2.42;;;15.30;1.00;;;;;;5071930;28;20210;-78
2023/03/15 12:06:16;;;;;;;4.78;2.65;;;15.30;1.00;;;;;;5071904;28;20180;-78
2023/03/15 12:08:51;;;;;;;4.50;2.63;;;14.50;1.00;;;;;;5072000;28;20194;-76
2023/03/15 12:11:19;;;;;;;4.95;3.25;;;14.80;1.00;;;;;;5072396;28;20168;-77
2023/03/15 12:14:04;;;;;;;3.05;2.72;;;14.60;1.00;;;;;;5072046;28;20666;-77
2023/03/15 12:16:33;;;;;;;3.43;2.00;;;14.40;1.00;;;;;;5072792;28;20184;-77
2023/03/15 12:19:10;;;;;;;3.90;2.47;;;14.00;1.00;;;;;;5072741;28;20174;-77
2023/03/15 12:21:43;;;;;;;4.37;2.70;;;13.40;1.00;;;;;;5071733;28;20702;-76
2023/03/15 12:24:19;;;;;;;2.10;1.90;;;13.10;99.90;;;;;;5053841;28;20697;-76
2023/03/15 12:27:13;;;;;;;4.97;2.00;;;12.90;1.00;;;;;;5072259;28;20172;-77
2023/03/15 12:29:40;;;;;;;3.73;2.47;;;12.80;1.00;;;;;;5075801;28;20240;-78
2023/03/15 12:32:12;;;;;;;3.03;2.23;;;13.30;1.00;;;;;;5075996;28;20160;-77
2023/03/15 12:34:50;;;;;;;3.00;2.20;;;13.80;1.00;;;;;;5075541;28;20232;-76
2023/03/15 12:37:21;;;;;;;4.43;2.73;;;13.40;1.00;;;;;;5075439;28;20729;-77
2023/03/15 12:40:21;;;;;;;2.27;1.90;;;13.20;1.00;;;;;;5058162;28;20180;-77
2023/03/15 12:42:46;;;;;;;4.10;2.00;;;13.10;1.00;;;;;;5042378;28;20219;-77
2023/03/15 12:45:15;;;;;;;2.67;1.90;;;12.80;1.00;;;;;;5057780;28;20177;-76
2023/03/15 12:47:50;;;;;;;3.63;1.73;;;12.40;1.00;;;;;;5057242;28;20668;-76
2023/03/15 12:50:58;;;;;;;6.13;3.00;;;12.20;99.90;;;;;;5075423;28;20532;-77
2023/03/15 12:53:37;;;;;;;5.37;4.90;;;12.50;1.00;;;;;;5069943;28;20187;-76
2023/03/15 12:56:29;;;;;;;2.70;2.30;;;12.70;1.00;;;;;;5076214;28;20259;-77
2023/03/15 12:59:02;;;;;;;5.53;2.33;;;13.00;1.00;;;;;;5070740;28;20207;-76
2023/03/15 13:01:28;;;;;;;2.87;2.67;;;13.10;1.00;;;;;;5075593;28;20173;-76
2023/03/15 13:03:57;;;;;;;1.90;1.60;;;13.10;1.00;;;;;;5056993;28;20530;-76
2023/03/15 13:06:44;;;;;;;5.17;1.73;;;11.80;99.90;;;;;;5075534;28;20288;-76